createdAt,value
2023-10-29T08:50:32.257Z,27.32
2023-10-29T08:51:46.029Z,27.50
2023-10-29T08:52:19.251Z,27.64
2023-10-29T08:52:51.818Z,27.68
2023-10-29T08:53:24.310Z,27.73
2023-10-29T08:53:58.585Z,27.76
2023-10-29T08:54:31.171Z,27.78
2023-10-29T08:55:05.012Z,27.82
2023-10-29T08:55:37.563Z,27.88
2023-10-29T08:56:10.118Z,27.91
2023-10-29T08:56:42.685Z,27.94
2023-10-29T08:57:15.308Z,27.98
2023-10-29T08:57:47.828Z,28.02
2023-10-29T08:58:21.984Z,28.05
2023-10-29T08:58:54.527Z,28.08
2023-10-29T08:59:27.046Z,28.14
2023-10-29T08:59:59.609Z,28.19
2023-10-29T09:00:45.530Z,28.24
2023-10-29T09:01:19.332Z,28.30
2023-10-29T09:01:53.502Z,28.34
2023-10-29T09:02:26.574Z,28.36
2023-10-29T09:02:59.324Z,28.37
2023-10-29T09:03:32.143Z,28.38
2023-10-29T09:04:05.926Z,28.39
2023-10-29T09:04:39.881Z,28.38
2023-10-29T09:05:12.939Z,28.39
2023-10-29T09:05:47.702Z,28.41
2023-10-29T09:06:21.753Z,28.45
2023-10-29T09:06:54.500Z,28.51
2023-10-29T09:07:27.040Z,28.57
2023-10-29T09:07:59.640Z,28.59
2023-10-29T09:08:35.918Z,28.61
2023-10-29T09:09:08.505Z,28.65
2023-10-29T09:09:41.744Z,28.70
2023-10-29T09:10:15.493Z,28.75
2023-10-29T09:10:47.996Z,28.78
2023-10-29T09:11:20.500Z,28.80
2023-10-29T09:11:54.690Z,28.81
2023-10-29T09:12:27.294Z,28.83
2023-10-29T09:13:00.945Z,28.85
2023-10-29T09:13:33.658Z,28.90
2023-10-29T09:14:08.770Z,28.94
2023-10-29T09:14:41.439Z,29.00
2023-10-29T09:15:14.009Z,29.05
2023-10-29T09:15:46.527Z,29.09
2023-10-29T09:16:19.085Z,29.15
2023-10-29T09:16:51.615Z,29.18
2023-10-29T09:17:24.293Z,29.20
2023-10-29T09:17:56.962Z,29.22
2023-10-29T09:18:30.265Z,29.26
2023-10-29T09:19:03.514Z,29.30
2023-10-29T09:19:36.358Z,29.33
2023-10-29T09:20:09.322Z,29.36
2023-10-29T09:20:42.064Z,29.39
2023-10-29T09:21:15.202Z,29.40
2023-10-29T09:21:48.601Z,29.41
2023-10-29T09:22:21.172Z,29.42
2023-10-29T09:22:53.745Z,29.44
2023-10-29T09:23:26.947Z,29.47
2023-10-29T09:24:00.351Z,29.50
2023-10-29T09:24:32.866Z,29.54
2023-10-29T09:25:05.891Z,29.58
2023-10-29T09:25:38.381Z,29.60
2023-10-29T09:26:10.963Z,29.60
2023-10-29T09:26:43.529Z,29.61
2023-10-29T09:27:16.031Z,29.63
2023-10-29T09:27:48.591Z,29.64
2023-10-29T09:28:22.453Z,29.64
2023-10-29T09:28:54.986Z,29.64
2023-10-29T09:29:27.735Z,29.65
2023-10-29T09:30:00.345Z,29.67
2023-10-29T09:30:33.136Z,29.68
2023-10-29T09:31:05.615Z,29.70
2023-10-29T09:31:38.155Z,29.70
2023-10-29T09:32:10.758Z,29.69
2023-10-29T09:32:45.991Z,29.67
2023-10-29T09:33:18.670Z,29.62
2023-10-29T09:33:51.262Z,29.57
2023-10-29T09:34:23.759Z,29.52
2023-10-29T09:34:56.248Z,29.49
2023-10-29T09:35:28.767Z,29.46
2023-10-29T09:36:01.642Z,29.43
2023-10-29T09:36:34.149Z,29.40
2023-10-29T09:37:06.663Z,29.36
2023-10-29T09:37:39.187Z,29.25
2023-10-29T09:38:12.408Z,29.16
2023-10-29T09:38:45.082Z,29.11
2023-10-29T09:39:18.745Z,29.05
2023-10-29T09:39:51.378Z,28.89
2023-10-29T09:40:23.930Z,28.62
2023-10-29T09:40:56.891Z,28.45
2023-10-29T09:41:32.481Z,28.28
2023-10-29T09:42:09.764Z,27.93
2023-10-29T09:43:00.705Z,27.70
2023-10-29T09:43:40.373Z,27.40
2023-10-29T09:44:20.323Z,27.04
2023-10-29T09:44:59.196Z,26.85
2023-10-29T09:45:34.269Z,26.73
2023-10-29T09:46:07.170Z,26.64
2023-10-29T09:46:39.915Z,26.58
2023-10-29T09:47:18.658Z,26.56
2023-10-29T09:47:51.869Z,26.53
2023-10-29T09:48:26.526Z,26.50
2023-10-29T09:48:59.619Z,26.45
2023-10-29T09:49:32.219Z,26.38
2023-10-29T09:50:05.496Z,26.31
2023-10-29T09:50:38.082Z,26.26
2023-10-29T09:51:11.472Z,26.24
2023-10-29T09:51:44.101Z,26.17
2023-10-29T09:52:18.029Z,26.09
2023-10-29T09:52:51.945Z,26.02
2023-10-29T09:53:25.375Z,25.95
2023-10-29T09:54:00.668Z,25.81
2023-10-29T09:54:33.482Z,25.65
2023-10-29T09:55:08.980Z,25.60
2023-10-29T09:55:41.836Z,25.58
2023-10-29T09:56:14.794Z,25.55
2023-10-29T09:56:47.460Z,25.48
2023-10-29T09:57:19.965Z,25.40
2023-10-29T09:57:52.644Z,25.35
2023-10-29T09:58:26.065Z,25.31
2023-10-29T09:58:58.605Z,25.26
2023-10-29T09:59:31.153Z,25.22
2023-10-29T10:00:04.272Z,25.17
2023-10-29T10:00:37.771Z,25.12
2023-10-29T10:01:10.901Z,25.07
2023-10-29T10:01:57.536Z,24.99
2023-10-29T10:02:30.957Z,24.89
2023-10-29T10:03:04.146Z,24.85
2023-10-29T10:03:37.708Z,24.81
2023-10-29T10:04:10.568Z,24.75
2023-10-29T10:04:44.756Z,24.72
2023-10-29T10:05:21.463Z,24.69
2023-10-29T10:05:55.385Z,24.66
2023-10-29T10:06:28.668Z,24.63
2023-10-29T10:07:03.628Z,24.60
2023-10-29T10:07:36.149Z,24.58
2023-10-29T10:08:09.086Z,24.56
2023-10-29T10:08:41.644Z,24.51
2023-10-29T10:09:15.249Z,24.47
2023-10-29T10:09:57.791Z,24.42
2023-10-29T10:10:43.059Z,24.36
2023-10-29T10:11:23.492Z,24.32
2023-10-29T10:12:05.941Z,24.30
2023-10-29T10:12:48.877Z,24.26
2023-10-29T10:13:37.605Z,24.23
2023-10-29T10:14:27.119Z,24.20
2023-10-29T10:15:06.193Z,24.17
2023-10-29T10:15:39.142Z,24.15
2023-10-29T10:16:14.345Z,24.13
2023-10-29T10:16:47.778Z,24.10
2023-10-29T10:17:20.313Z,24.07
2023-10-29T10:18:01.238Z,24.04
2023-10-29T10:18:50.332Z,24.01
2023-10-29T10:19:22.885Z,23.96
2023-10-29T10:20:07.693Z,23.91
2023-10-29T10:20:40.322Z,23.81
2023-10-29T10:21:12.931Z,23.73
2023-10-29T10:21:45.510Z,23.67
2023-10-29T10:22:35.831Z,23.63
2023-10-29T10:23:12.152Z,23.57
2023-10-29T10:23:52.173Z,23.52
2023-10-29T10:24:37.257Z,23.46
2023-10-29T10:25:19.106Z,23.39
2023-10-29T10:26:00.302Z,23.31
2023-10-29T10:26:35.372Z,23.27
2023-10-29T10:27:08.705Z,23.24
2023-10-29T10:27:49.082Z,23.22
2023-10-29T10:28:21.708Z,23.18
2023-10-29T10:28:56.509Z,23.15
2023-10-29T10:29:32.976Z,23.13
2023-10-29T10:30:24.942Z,23.11
2023-10-29T10:30:57.627Z,23.08
2023-10-29T10:31:32.602Z,23.06
2023-10-29T10:32:07.076Z,23.04
2023-10-29T10:32:39.698Z,23.01
2023-10-29T10:33:22.229Z,22.99
2023-10-29T10:34:15.148Z,22.96
2023-10-29T10:34:52.914Z,22.92
2023-10-29T10:35:59.049Z,22.90
2023-10-29T10:36:32.739Z,22.87
2023-10-29T10:37:05.665Z,22.84
2023-10-29T10:37:54.225Z,22.82
2023-10-29T10:38:26.704Z,22.79
2023-10-29T10:38:59.229Z,22.76
2023-10-29T10:39:35.912Z,22.73
2023-10-29T10:40:24.597Z,22.71
2023-10-29T10:41:01.130Z,22.68
2023-10-29T10:41:47.225Z,22.67
2023-10-29T10:42:26.297Z,22.66
2023-10-29T10:42:58.854Z,22.64
2023-10-29T10:43:31.771Z,22.64
2023-10-29T10:44:11.176Z,22.63
2023-10-29T10:44:44.629Z,22.61
2023-10-29T10:45:21.503Z,22.60
2023-10-29T10:45:56.352Z,22.58
2023-10-29T10:46:35.120Z,22.57
2023-10-29T10:47:07.639Z,22.55
2023-10-29T10:47:40.316Z,22.54
2023-10-29T10:48:13.277Z,22.54
2023-10-29T10:48:45.975Z,22.52
2023-10-29T10:49:19.864Z,22.50
2023-10-29T10:49:52.450Z,22.48
2023-10-29T10:50:29.098Z,22.46
2023-10-29T10:51:03.582Z,22.45
2023-10-29T10:51:39.359Z,22.44
2023-10-29T10:52:13.209Z,22.43
2023-10-29T10:52:46.189Z,22.43
2023-10-29T10:53:20.435Z,22.42
2023-10-29T10:53:53.749Z,22.41
2023-10-29T10:54:27.385Z,22.41
2023-10-29T10:55:00.247Z,22.41
2023-10-29T10:56:13.863Z,22.39
2023-10-29T10:56:47.464Z,22.39
2023-10-29T10:57:20.976Z,22.39
2023-10-29T10:57:53.516Z,22.38
2023-10-29T10:58:26.287Z,22.38
2023-10-29T10:59:01.407Z,22.38
2023-10-29T10:59:37.299Z,22.38
2023-10-29T11:00:11.969Z,22.37
2023-10-29T11:00:46.172Z,22.38
2023-10-29T11:01:19.526Z,22.38
2023-10-29T11:01:52.174Z,22.38
2023-10-29T11:02:25.263Z,22.37
2023-10-29T11:02:58.454Z,22.38
2023-10-29T11:03:34.313Z,22.38
2023-10-29T11:04:09.797Z,22.38
2023-10-29T11:04:43.547Z,22.38
2023-10-29T11:05:17.680Z,22.38
2023-10-29T11:05:50.727Z,22.38
2023-10-29T11:06:23.231Z,22.38
2023-10-29T11:06:56.969Z,22.37
2023-10-29T11:07:29.700Z,22.36
2023-10-29T11:08:03.257Z,22.35
2023-10-29T11:08:37.389Z,22.33
2023-10-29T11:09:15.362Z,22.32
2023-10-29T11:09:48.037Z,22.31
2023-10-29T11:10:20.569Z,22.29
2023-10-29T11:10:55.164Z,22.27
2023-10-29T11:11:36.732Z,22.26
2023-10-29T11:12:11.102Z,22.25
2023-10-29T11:12:47.346Z,22.24
2023-10-29T11:13:24.085Z,22.22
2023-10-29T11:14:16.161Z,22.20
2023-10-29T11:15:12.052Z,22.18
2023-10-29T11:15:48.506Z,22.17
2023-10-29T11:16:27.716Z,22.16
2023-10-29T11:17:01.045Z,22.16
2023-10-29T11:17:55.456Z,22.15
2023-10-29T11:18:34.796Z,22.14
2023-10-29T11:19:45.653Z,22.14
2023-10-29T11:20:50.623Z,22.13
2023-10-29T11:21:36.052Z,22.12
2023-10-29T11:22:18.529Z,22.11
2023-10-29T11:22:52.571Z,22.11
2023-10-29T11:23:25.392Z,22.12
2023-10-29T11:24:32.920Z,22.12
2023-10-29T11:25:12.575Z,22.11
2023-10-29T11:25:45.108Z,22.11
2023-10-29T11:26:24.900Z,22.11
2023-10-29T11:27:38.729Z,22.10
2023-10-29T11:28:25.961Z,22.10
2023-10-29T11:28:58.484Z,22.10
2023-10-29T11:29:43.675Z,22.10
2023-10-29T11:30:23.654Z,22.09
2023-10-29T11:31:15.734Z,22.09
2023-10-29T11:31:48.327Z,22.10
2023-10-29T11:32:27.392Z,22.10
2023-10-29T11:33:16.897Z,22.11
2023-10-29T11:33:58.212Z,22.11
2023-10-29T11:34:30.756Z,22.10
2023-10-29T11:35:17.948Z,22.10
2023-10-29T11:35:50.528Z,22.10
2023-10-29T11:36:43.849Z,22.10
2023-10-29T11:37:40.693Z,22.10
2023-10-29T11:38:31.260Z,22.11
2023-10-29T11:39:23.897Z,22.11
2023-10-29T11:39:56.467Z,22.13
2023-10-29T11:40:33.519Z,22.13
2023-10-29T11:41:36.916Z,22.14
2023-10-29T11:42:26.032Z,22.15
2023-10-29T11:43:15.132Z,22.16
2023-10-29T11:43:47.622Z,22.17
2023-10-29T11:44:23.226Z,22.17
2023-10-29T11:45:30.620Z,22.18
2023-10-29T11:46:03.613Z,22.18
2023-10-29T11:46:56.464Z,22.17
2023-10-29T11:47:28.980Z,22.17
2023-10-29T11:48:10.830Z,22.17
2023-10-29T11:49:03.785Z,22.16
2023-10-29T11:49:45.507Z,22.15
2023-10-29T11:50:18.020Z,22.14
2023-10-29T11:51:10.129Z,22.14
2023-10-29T11:51:57.083Z,22.14
2023-10-29T11:52:41.394Z,22.14
2023-10-29T11:53:27.027Z,22.14
2023-10-29T11:54:05.477Z,22.14
2023-10-29T11:54:40.204Z,22.14
2023-10-29T11:55:12.799Z,22.14
2023-10-29T11:55:47.076Z,22.14
2023-10-29T11:56:20.869Z,22.14
2023-10-29T11:56:53.766Z,22.14
2023-10-29T11:57:26.429Z,22.14
2023-10-29T11:58:00.242Z,22.15
2023-10-29T11:58:33.257Z,22.15
2023-10-29T11:59:06.849Z,22.16
2023-10-29T11:59:55.694Z,22.17
2023-10-29T12:00:41.321Z,22.17
2023-10-29T12:01:19.667Z,22.18
2023-10-29T12:01:52.793Z,22.19
2023-10-29T12:02:26.605Z,22.20
2023-10-29T12:02:59.233Z,22.21
2023-10-29T12:03:32.354Z,22.21
2023-10-29T12:04:05.736Z,22.21
2023-10-29T12:04:38.365Z,22.19
2023-10-29T12:05:11.663Z,22.19
2023-10-29T12:05:51.079Z,22.18
2023-10-29T12:06:47.916Z,22.18
2023-10-29T12:07:26.930Z,22.17
2023-10-29T12:08:02.870Z,22.17
2023-10-29T12:08:35.382Z,22.17
2023-10-29T12:09:19.673Z,22.17
2023-10-29T12:10:02.646Z,22.17
2023-10-29T12:10:49.270Z,22.17
2023-10-29T12:11:26.804Z,22.18
2023-10-29T12:12:10.131Z,22.19
2023-10-29T12:12:52.425Z,22.19
2023-10-29T12:13:24.994Z,22.19
2023-10-29T12:13:57.496Z,22.19
2023-10-29T12:14:44.825Z,22.19
2023-10-29T12:15:17.905Z,22.18
2023-10-29T12:16:03.394Z,22.18
2023-10-29T12:16:36.811Z,22.18
2023-10-29T12:17:11.011Z,22.18
2023-10-29T12:17:46.591Z,22.19
2023-10-29T12:18:21.612Z,22.19
2023-10-29T12:18:56.195Z,22.19
2023-10-29T12:19:42.248Z,22.18
2023-10-29T12:20:24.840Z,22.17
2023-10-29T12:21:12.409Z,22.17
2023-10-29T12:21:53.957Z,22.16
2023-10-29T12:22:33.192Z,22.16
2023-10-29T12:23:05.765Z,22.15
2023-10-29T12:23:39.645Z,22.14
2023-10-29T12:24:12.424Z,22.14
2023-10-29T12:24:46.866Z,22.14
2023-10-29T12:25:19.811Z,22.14
2023-10-29T12:25:52.313Z,22.14
2023-10-29T12:26:29.173Z,22.14
2023-10-29T12:27:01.949Z,22.14
2023-10-29T12:27:35.479Z,22.13
2023-10-29T12:28:09.374Z,22.13
2023-10-29T12:28:42.396Z,22.13
2023-10-29T12:29:15.540Z,22.13
2023-10-29T12:29:48.136Z,22.13
2023-10-29T12:30:40.417Z,22.12
2023-10-29T12:31:25.969Z,22.11
2023-10-29T12:31:58.580Z,22.11
2023-10-29T12:32:31.308Z,22.11
2023-10-29T12:33:23.780Z,22.09
2023-10-29T12:34:00.436Z,22.07
2023-10-29T12:34:53.337Z,22.07
2023-10-29T12:35:35.897Z,22.05
2023-10-29T12:36:15.561Z,22.02
2023-10-29T12:36:52.788Z,22.01
2023-10-29T12:37:29.120Z,22.00
2023-10-29T12:38:02.554Z,22.00
2023-10-29T12:38:39.829Z,21.98
2023-10-29T12:39:14.837Z,21.96
2023-10-29T12:39:47.985Z,21.95
2023-10-29T12:40:20.542Z,21.95
2023-10-29T12:41:10.696Z,21.95
2023-10-29T12:41:53.200Z,21.93
2023-10-29T12:42:53.683Z,21.92
2023-10-29T12:43:37.229Z,21.91
2023-10-29T12:44:17.275Z,21.90
2023-10-29T12:44:54.533Z,21.89
2023-10-29T12:45:28.785Z,21.87
2023-10-29T12:46:01.811Z,21.86
2023-10-29T12:46:34.436Z,21.84
2023-10-29T12:47:07.511Z,21.83
2023-10-29T12:47:40.019Z,21.83
2023-10-29T12:48:15.536Z,21.82
2023-10-29T12:49:09.308Z,21.81
2023-10-29T12:49:41.849Z,21.80
2023-10-29T12:50:14.319Z,21.79
2023-10-29T12:50:54.282Z,21.79
2023-10-29T12:51:31.704Z,21.79
2023-10-29T12:52:13.723Z,21.78
2023-10-29T12:52:46.206Z,21.77
2023-10-29T12:53:23.426Z,21.77
2023-10-29T12:54:19.063Z,21.76
2023-10-29T12:54:51.685Z,21.75
2023-10-29T12:55:24.280Z,21.75
2023-10-29T12:55:58.863Z,21.73
2023-10-29T12:56:31.348Z,21.73
2023-10-29T12:57:04.144Z,21.72
2023-10-29T12:57:36.716Z,21.72
2023-10-29T12:58:09.205Z,21.71
2023-10-29T12:58:41.729Z,21.70
2023-10-29T12:59:14.216Z,21.69
2023-10-29T12:59:48.398Z,21.68
2023-10-29T13:00:21.505Z,21.68
2023-10-29T13:00:56.872Z,21.67
2023-10-29T13:01:29.936Z,21.67
2023-10-29T13:02:07.730Z,21.66
2023-10-29T13:02:40.625Z,21.66
2023-10-29T13:03:13.347Z,21.66
2023-10-29T13:03:46.058Z,21.65
2023-10-29T13:04:18.941Z,21.64
2023-10-29T13:04:51.557Z,21.63
2023-10-29T13:05:24.077Z,21.63
2023-10-29T13:05:56.702Z,21.62
2023-10-29T13:06:29.260Z,21.62
2023-10-29T13:07:08.867Z,21.61
2023-10-29T13:07:42.970Z,21.61
2023-10-29T13:08:17.192Z,21.61
2023-10-29T13:08:49.829Z,21.60
2023-10-29T13:09:27.037Z,21.60
2023-10-29T13:10:05.339Z,21.60
2023-10-29T13:10:38.049Z,21.60
2023-10-29T13:11:12.838Z,21.59
2023-10-29T13:11:47.201Z,21.59
2023-10-29T13:12:19.897Z,21.59
2023-10-29T13:12:53.137Z,21.59
2023-10-29T13:13:26.434Z,21.59
2023-10-29T13:14:08.704Z,21.59
2023-10-29T13:14:42.001Z,21.58
2023-10-29T13:15:14.627Z,21.58
2023-10-29T13:15:47.140Z,21.57
2023-10-29T13:16:19.753Z,21.57
2023-10-29T13:16:55.748Z,21.57
2023-10-29T13:17:28.364Z,21.56
2023-10-29T13:18:01.424Z,21.56
2023-10-29T13:18:34.096Z,21.56
2023-10-29T13:19:08.049Z,21.57
2023-10-29T13:19:40.722Z,21.57
2023-10-29T13:20:13.510Z,21.57
2023-10-29T13:20:46.269Z,21.58
2023-10-29T13:21:19.652Z,21.58
2023-10-29T13:21:53.541Z,21.59
2023-10-29T13:22:26.402Z,21.59
2023-10-29T13:22:59.133Z,21.59
2023-10-29T13:23:31.663Z,21.60
2023-10-29T13:24:05.120Z,21.61
2023-10-29T13:24:38.016Z,21.61
2023-10-29T13:25:10.546Z,21.62
2023-10-29T13:25:43.093Z,21.63
2023-10-29T13:26:15.583Z,21.64
2023-10-29T13:26:49.261Z,21.65
2023-10-29T13:27:21.851Z,21.66
2023-10-29T13:27:54.416Z,21.67
2023-10-29T13:28:27.005Z,21.68
2023-10-29T13:28:59.511Z,21.69
2023-10-29T13:29:32.079Z,21.70
2023-10-29T13:30:06.871Z,21.70
2023-10-29T13:30:39.374Z,21.71
2023-10-29T13:31:11.888Z,21.72
2023-10-29T13:31:47.021Z,21.73
2023-10-29T13:32:21.097Z,21.73
2023-10-29T13:32:53.921Z,21.74
2023-10-29T13:33:26.645Z,21.74
2023-10-29T13:34:00.389Z,21.75
2023-10-29T13:34:34.259Z,21.76
2023-10-29T13:35:07.759Z,21.77
2023-10-29T13:35:40.877Z,21.77
2023-10-29T13:36:13.448Z,21.78
2023-10-29T13:36:46.074Z,21.78
2023-10-29T13:37:19.495Z,21.78
2023-10-29T13:37:51.972Z,21.77
2023-10-29T13:38:25.635Z,21.76
2023-10-29T13:38:58.223Z,21.76
2023-10-29T13:39:30.790Z,21.76
2023-10-29T13:40:03.420Z,21.76
2023-10-29T13:40:39.024Z,21.76
2023-10-29T13:41:13.239Z,21.76
2023-10-29T13:41:45.810Z,21.76
2023-10-29T13:42:19.832Z,21.76
2023-10-29T13:42:52.463Z,21.76
2023-10-29T13:43:24.983Z,21.77
2023-10-29T13:43:57.703Z,21.77
2023-10-29T13:44:30.212Z,21.77
2023-10-29T13:45:02.840Z,21.76
2023-10-29T13:45:35.646Z,21.76
2023-10-29T13:46:08.212Z,21.76
2023-10-29T13:46:40.787Z,21.76
2023-10-29T13:47:13.907Z,21.76
2023-10-29T13:47:46.483Z,21.76
2023-10-29T13:48:19.116Z,21.76
2023-10-29T13:48:54.287Z,21.75
2023-10-29T13:49:26.828Z,21.75
2023-10-29T13:49:59.511Z,21.74
2023-10-29T13:50:32.064Z,21.74
2023-10-29T13:51:06.353Z,21.74
2023-10-29T13:51:39.387Z,21.74
2023-10-29T13:52:12.650Z,21.74
2023-10-29T13:52:45.147Z,21.73
2023-10-29T13:53:17.730Z,21.73
2023-10-29T13:53:50.388Z,21.73
2023-10-29T13:54:23.543Z,21.72
2023-10-29T13:54:57.433Z,21.71
2023-10-29T13:55:30.103Z,21.70
2023-10-29T13:56:13.102Z,21.68
2023-10-29T13:56:45.886Z,21.68
2023-10-29T13:57:18.443Z,21.67
2023-10-29T13:57:50.956Z,21.67
2023-10-29T13:58:23.458Z,21.66
2023-10-29T13:58:56.210Z,21.65
2023-10-29T13:59:28.724Z,21.65
2023-10-29T14:00:01.404Z,21.64
2023-10-29T14:00:34.031Z,21.63
2023-10-29T14:01:18.108Z,21.63
2023-10-29T14:01:50.662Z,21.61
2023-10-29T14:02:23.262Z,21.61
2023-10-29T14:02:58.279Z,21.60
2023-10-29T14:03:31.771Z,21.59
2023-10-29T14:04:04.554Z,21.58
2023-10-29T14:04:37.136Z,21.58
2023-10-29T14:05:13.264Z,21.57
2023-10-29T14:05:48.022Z,21.56
2023-10-29T14:06:21.203Z,21.56
2023-10-29T14:06:53.702Z,21.55
2023-10-29T14:07:27.870Z,21.54
2023-10-29T14:08:01.406Z,21.54
2023-10-29T14:08:33.923Z,21.53
2023-10-29T14:09:07.534Z,21.52
2023-10-29T14:09:40.219Z,21.52
2023-10-29T14:10:12.716Z,21.51
2023-10-29T14:10:45.287Z,21.50
2023-10-29T14:11:18.218Z,21.49
2023-10-29T14:11:50.912Z,21.47
2023-10-29T14:12:23.737Z,21.39
2023-10-29T14:12:56.275Z,21.37
2023-10-29T14:13:28.755Z,21.37
2023-10-29T14:14:01.286Z,21.37
2023-10-29T14:14:33.795Z,21.36
2023-10-29T14:15:07.240Z,21.36
2023-10-29T14:15:39.811Z,21.36
2023-10-29T14:18:04.832Z,21.33
2023-10-29T14:18:37.469Z,21.32
2023-10-29T14:19:10.740Z,21.32
2023-10-29T14:19:43.287Z,21.32
2023-10-29T14:20:15.893Z,21.32
2023-10-29T14:20:48.616Z,21.33
2023-10-29T14:21:22.081Z,21.32
2023-10-29T14:21:55.994Z,21.32
2023-10-29T14:22:28.498Z,21.32
2023-10-29T14:23:01.160Z,21.32
2023-10-29T14:23:33.675Z,21.32
2023-10-29T14:24:09.653Z,21.32
2023-10-29T14:24:42.253Z,21.32
2023-10-29T14:25:14.842Z,21.33
2023-10-29T14:25:49.970Z,21.33
2023-10-29T14:26:22.459Z,21.33
2023-10-29T14:26:56.880Z,21.33
2023-10-29T14:27:29.466Z,21.32
2023-10-29T14:28:02.253Z,21.32
2023-10-29T14:28:35.164Z,21.31
2023-10-29T14:29:07.689Z,21.31
2023-10-29T14:29:40.344Z,21.30
2023-10-29T14:30:13.809Z,21.30
2023-10-29T14:30:46.445Z,21.30
2023-10-29T14:31:19.009Z,21.30
2023-10-29T14:31:51.605Z,21.30
2023-10-29T14:32:24.646Z,21.29
2023-10-29T14:32:57.494Z,21.28
2023-10-29T14:33:30.392Z,21.28
2023-10-29T14:34:05.064Z,21.28
2023-10-29T14:34:37.916Z,21.27
2023-10-29T14:35:10.520Z,21.27
2023-10-29T14:35:43.006Z,21.27
2023-10-29T14:36:15.729Z,21.26
2023-10-29T14:36:48.226Z,21.26
2023-10-29T14:38:02.100Z,21.26
2023-10-29T14:38:34.883Z,21.25
2023-10-29T14:39:08.502Z,21.25
2023-10-29T14:39:41.407Z,21.25
2023-10-29T14:40:13.915Z,21.25
2023-10-29T14:40:46.648Z,21.25
2023-10-29T14:41:19.141Z,21.25
2023-10-29T14:41:52.659Z,21.24
2023-10-29T14:42:30.065Z,21.24
2023-10-29T14:43:20.673Z,21.23
2023-10-29T14:43:54.431Z,21.22
2023-10-29T14:44:26.933Z,21.22
2023-10-29T14:44:59.425Z,21.20
2023-10-29T14:45:31.948Z,21.19
2023-10-29T14:46:05.087Z,21.19
2023-10-29T14:46:38.348Z,21.18
2023-10-29T14:47:11.574Z,21.18
2023-10-29T14:47:44.722Z,21.17
2023-10-29T14:48:17.629Z,21.17
2023-10-29T14:48:50.215Z,21.17
2023-10-29T14:49:22.724Z,21.16
2023-10-29T14:49:55.421Z,21.15
2023-10-29T14:50:27.952Z,21.14
2023-10-29T14:51:04.620Z,21.14
2023-10-29T14:51:37.168Z,21.13
2023-10-29T14:52:09.650Z,21.13
2023-10-29T14:52:42.331Z,21.12
2023-10-29T14:53:14.925Z,21.12
2023-10-29T14:53:47.497Z,21.11
2023-10-29T14:54:20.197Z,21.11
2023-10-29T14:54:52.723Z,21.10
2023-10-29T14:55:25.265Z,21.09
2023-10-29T14:55:57.828Z,21.09
2023-10-29T14:56:30.311Z,21.08
2023-10-29T14:57:13.817Z,21.08
2023-10-29T14:57:54.877Z,21.07
2023-10-29T14:58:27.412Z,21.06
2023-10-29T14:58:59.915Z,21.05
2023-10-29T14:59:35.877Z,21.05
2023-10-29T15:00:10.616Z,21.03
2023-10-29T15:00:44.111Z,21.02
2023-10-29T15:01:16.806Z,21.02
2023-10-29T15:01:49.374Z,21.01
2023-10-29T15:02:21.954Z,21.00
2023-10-29T15:02:54.600Z,20.99
2023-10-29T15:03:28.641Z,20.98
2023-10-29T15:04:01.541Z,20.97
2023-10-29T15:04:34.111Z,20.97
2023-10-29T15:05:08.066Z,20.96
2023-10-29T15:05:41.187Z,20.95
2023-10-29T15:06:13.768Z,20.95
2023-10-29T15:06:46.310Z,20.94
2023-10-29T15:07:18.808Z,20.93
2023-10-29T15:07:51.328Z,20.92
2023-10-29T15:08:24.234Z,20.91
2023-10-29T15:08:56.862Z,20.91
2023-10-29T15:09:29.397Z,20.89
2023-10-29T15:10:01.908Z,20.89
2023-10-29T15:10:34.709Z,20.88
2023-10-29T15:11:07.429Z,20.87
2023-10-29T15:11:40.104Z,20.86
2023-10-29T15:12:14.761Z,20.84
2023-10-29T15:12:47.307Z,20.83
2023-10-29T15:13:21.058Z,20.82
2023-10-29T15:13:53.543Z,20.81
2023-10-29T15:14:26.034Z,20.80
2023-10-29T15:14:58.722Z,20.79
2023-10-29T15:15:33.341Z,20.78
2023-10-29T15:16:06.028Z,20.77
2023-10-29T15:16:38.816Z,20.76
2023-10-29T15:17:11.392Z,20.75
2023-10-29T15:17:45.782Z,20.74
2023-10-29T15:18:19.446Z,20.73
2023-10-29T15:18:52.140Z,20.71
2023-10-29T15:19:36.132Z,20.70
2023-10-29T15:20:09.976Z,20.68
2023-10-29T15:20:54.471Z,20.66
2023-10-29T15:21:33.996Z,20.64
2023-10-29T15:22:07.201Z,20.63
2023-10-29T15:22:40.323Z,20.61
2023-10-29T15:23:13.563Z,20.60
2023-10-29T15:23:46.051Z,20.59
2023-10-29T15:24:18.622Z,20.57
2023-10-29T15:24:51.186Z,20.56
2023-10-29T15:25:24.554Z,20.55
2023-10-29T15:25:57.051Z,20.53
2023-10-29T15:26:29.552Z,20.52
2023-10-29T15:27:02.171Z,20.51
2023-10-29T15:27:38.530Z,20.50
2023-10-29T15:28:11.380Z,20.48
2023-10-29T15:28:43.882Z,20.48
2023-10-29T15:29:16.398Z,20.46
2023-10-29T15:29:52.506Z,20.45
2023-10-29T15:30:25.100Z,20.44
2023-10-29T15:31:06.686Z,20.43
2023-10-29T15:31:39.276Z,20.41
2023-10-29T15:32:11.804Z,20.40
2023-10-29T15:32:44.347Z,20.39
2023-10-29T15:33:17.166Z,20.38
2023-10-29T15:33:49.758Z,20.36
2023-10-29T15:34:22.636Z,20.35
2023-10-29T15:34:58.068Z,20.32
2023-10-29T15:35:34.693Z,20.30
2023-10-29T15:36:09.755Z,20.28
2023-10-29T15:36:42.276Z,20.26
2023-10-29T15:37:14.804Z,20.25
2023-10-29T15:37:47.305Z,20.24
2023-10-29T15:38:19.834Z,20.23
2023-10-29T15:38:52.516Z,20.21
2023-10-29T15:39:25.226Z,20.20
2023-10-29T15:39:58.353Z,20.19
2023-10-29T15:40:32.035Z,20.18
2023-10-29T15:41:07.686Z,20.16
2023-10-29T15:41:41.002Z,20.15
2023-10-29T15:42:13.469Z,20.14
2023-10-29T15:42:46.001Z,20.12
2023-10-29T15:43:18.516Z,20.11
2023-10-29T15:43:52.595Z,20.09
2023-10-29T15:44:25.140Z,20.08
2023-10-29T15:44:57.701Z,20.07
2023-10-29T15:45:30.342Z,20.05
2023-10-29T15:46:05.658Z,20.04
2023-10-29T15:46:38.634Z,20.02
2023-10-29T15:47:11.366Z,20.00
2023-10-29T15:47:43.900Z,19.99
2023-10-29T15:48:16.558Z,19.97
2023-10-29T15:48:49.855Z,19.95
2023-10-29T15:49:24.569Z,19.93
2023-10-29T15:49:57.691Z,19.92
2023-10-29T15:50:30.241Z,19.91
2023-10-29T15:51:09.053Z,19.89
2023-10-29T15:51:42.205Z,19.88
2023-10-29T15:52:14.732Z,19.86
2023-10-29T15:52:47.252Z,19.85
2023-10-29T15:53:20.589Z,19.83
2023-10-29T15:53:54.780Z,19.82
2023-10-29T15:54:28.751Z,19.81
2023-10-29T15:55:01.460Z,19.80
2023-10-29T15:55:34.106Z,19.79
2023-10-29T15:56:10.525Z,19.78
2023-10-29T15:56:45.071Z,19.76
2023-10-29T15:57:17.830Z,19.75
2023-10-29T15:57:50.415Z,19.74
2023-10-29T15:58:23.258Z,19.73
2023-10-29T15:58:55.775Z,19.72
2023-10-29T15:59:29.000Z,19.71
2023-10-29T16:00:01.777Z,19.70
2023-10-29T16:00:38.297Z,19.69
2023-10-29T16:01:18.799Z,19.68
2023-10-29T16:01:51.789Z,19.67
2023-10-29T16:02:24.281Z,19.66
2023-10-29T16:02:56.959Z,19.65
2023-10-29T16:03:29.691Z,19.64
2023-10-29T16:04:03.728Z,19.64
2023-10-29T16:04:36.347Z,19.62
2023-10-29T16:05:09.118Z,19.61
2023-10-29T16:05:41.583Z,19.60
2023-10-29T16:06:14.352Z,19.59
2023-10-29T16:06:46.906Z,19.58
2023-10-29T16:07:19.417Z,19.58
2023-10-29T16:07:51.909Z,19.57
2023-10-29T16:08:24.432Z,19.56
2023-10-29T16:08:56.987Z,19.55
2023-10-29T16:09:29.562Z,19.53
2023-10-29T16:10:02.133Z,19.52
2023-10-29T16:10:35.065Z,19.51
2023-10-29T16:11:20.492Z,19.50
2023-10-29T16:11:53.008Z,19.49
2023-10-29T16:12:25.748Z,19.48
2023-10-29T16:12:58.297Z,19.47
2023-10-29T16:13:30.781Z,19.46
2023-10-29T16:14:03.301Z,19.45
2023-10-29T16:14:36.619Z,19.44
2023-10-29T16:15:09.434Z,19.43
2023-10-29T16:15:41.972Z,19.42
2023-10-29T16:16:14.527Z,19.41
2023-10-29T16:16:47.299Z,19.41
2023-10-29T16:17:19.830Z,19.40
2023-10-29T16:17:52.589Z,19.39
2023-10-29T16:18:25.162Z,19.39
2023-10-29T16:18:58.152Z,19.38
2023-10-29T16:19:30.669Z,19.37
2023-10-29T16:20:07.091Z,19.36
2023-10-29T16:20:39.614Z,19.36
2023-10-29T16:21:12.137Z,19.35
2023-10-29T16:21:45.453Z,19.35
2023-10-29T16:22:17.955Z,19.34
2023-10-29T16:22:50.476Z,19.33
2023-10-29T16:23:23.236Z,19.32
2023-10-29T16:23:55.792Z,19.31
2023-10-29T16:24:30.300Z,19.30
2023-10-29T16:25:03.669Z,19.30
2023-10-29T16:25:36.160Z,19.29
2023-10-29T16:26:08.679Z,19.27
2023-10-29T16:26:42.070Z,19.27
2023-10-29T16:27:14.645Z,19.26
2023-10-29T16:27:47.202Z,19.25
2023-10-29T16:28:19.701Z,19.25
2023-10-29T16:28:52.253Z,19.23
2023-10-29T16:29:24.938Z,19.22